sensor_id;sensor_type;location;lat;lon;timestamp;P1;durP1;ratioP1;P2;durP2;ratioP2
9438;SDS011;5176;42.622;25.386;2023-03-16T00:01:01;9.57;;;7.93;;
9438;SDS011;5176;42.622;25.386;2023-03-16T00:03:31;10.67;;;8.50;;
9438;SDS011;5176;42.622;25.386;2023-03-16T00:05:59;9.83;;;8.10;;
9438;SDS011;5176;42.622;25.386;2023-03-16T00:08:28;11.17;;;7.67;;
9438;SDS011;5176;42.622;25.386;2023-03-16T00:10:58;9.57;;;8.07;;
9438;SDS011;5176;42.622;25.386;2023-03-16T00:13:28;10.00;;;8.20;;
9438;SDS011;5176;42.622;25.386;2023-03-16T00:16:00;10.23;;;8.53;;
9438;SDS011;5176;42.622;25.386;2023-03-16T00:18:30;10.47;;;8.20;;
9438;SDS011;5176;42.622;25.386;2023-03-16T00:21:04;11.90;;;8.07;;
9438;SDS011;5176;42.622;25.386;2023-03-16T00:23:34;11.20;;;8.60;;
9438;SDS011;5176;42.622;25.386;2023-03-16T00:26:05;10.33;;;9.00;;
9438;SDS011;5176;42.622;25.386;2023-03-16T00:28:35;12.33;;;9.40;;
9438;SDS011;5176;42.622;25.386;2023-03-16T00:31:05;10.87;;;8.40;;
9438;SDS011;5176;42.622;25.386;2023-03-16T00:33:37;10.57;;;8.37;;
9438;SDS011;5176;42.622;25.386;2023-03-16T00:36:08;8.77;;;7.47;;
9438;SDS011;5176;42.622;25.386;2023-03-16T00:38:38;9.67;;;8.17;;
9438;SDS011;5176;42.622;25.386;2023-03-16T00:41:12;10.27;;;7.80;;
9438;SDS011;5176;42.622;25.386;2023-03-16T00:43:42;9.53;;;7.83;;
9438;SDS011;5176;42.622;25.386;2023-03-16T00:46:13;9.80;;;8.00;;
9438;SDS011;5176;42.622;25.386;2023-03-16T00:48:43;9.80;;;7.77;;
9438;SDS011;5176;42.622;25.386;2023-03-16T00:51:13;8.80;;;7.67;;
9438;SDS011;5176;42.622;25.386;2023-03-16T00:53:45;13.33;;;8.20;;
9438;SDS011;5176;42.622;25.386;2023-03-16T00:56:15;9.03;;;7.90;;
9438;SDS011;5176;42.622;25.386;2023-03-16T00:58:44;9.97;;;8.93;;
9438;SDS011;5176;42.622;25.386;2023-03-16T01:01:14;12.10;;;8.40;;
9438;SDS011;5176;42.622;25.386;2023-03-16T01:03:44;12.67;;;8.83;;
9438;SDS011;5176;42.622;25.386;2023-03-16T01:06:14;11.07;;;9.00;;
9438;SDS011;5176;42.622;25.386;2023-03-16T01:08:46;11.97;;;8.80;;
9438;SDS011;5176;42.622;25.386;2023-03-16T01:11:19;11.17;;;8.47;;
9438;SDS011;5176;42.622;25.386;2023-03-16T01:13:49;9.30;;;8.30;;
9438;SDS011;5176;42.622;25.386;2023-03-16T01:16:21;11.23;;;9.53;;
9438;SDS011;5176;42.622;25.386;2023-03-16T01:18:50;10.33;;;8.40;;
9438;SDS011;5176;42.622;25.386;2023-03-16T01:21:20;12.00;;;8.93;;
9438;SDS011;5176;42.622;25.386;2023-03-16T01:23:49;12.07;;;8.53;;
9438;SDS011;5176;42.622;25.386;2023-03-16T01:26:20;10.80;;;9.00;;
9438;SDS011;5176;42.622;25.386;2023-03-16T01:28:50;11.43;;;9.10;;
9438;SDS011;5176;42.622;25.386;2023-03-16T01:31:20;11.57;;;9.07;;
9438;SDS011;5176;42.622;25.386;2023-03-16T01:33:49;12.33;;;9.50;;
9438;SDS011;5176;42.622;25.386;2023-03-16T01:36:18;10.63;;;8.77;;
9438;SDS011;5176;42.622;25.386;2023-03-16T01:38:47;10.57;;;8.83;;
9438;SDS011;5176;42.622;25.386;2023-03-16T01:41:15;11.13;;;9.37;;
9438;SDS011;5176;42.622;25.386;2023-03-16T01:43:45;9.17;;;8.23;;
9438;SDS011;5176;42.622;25.386;2023-03-16T01:46:17;11.50;;;8.63;;
9438;SDS011;5176;42.622;25.386;2023-03-16T01:48:50;10.87;;;9.10;;
9438;SDS011;5176;42.622;25.386;2023-03-16T01:51:26;13.47;;;9.97;;
9438;SDS011;5176;42.622;25.386;2023-03-16T01:54:00;11.30;;;9.63;;
9438;SDS011;5176;42.622;25.386;2023-03-16T01:56:32;11.70;;;9.63;;
9438;SDS011;5176;42.622;25.386;2023-03-16T01:59:06;12.00;;;9.97;;
9438;SDS011;5176;42.622;25.386;2023-03-16T02:01:41;12.70;;;9.90;;
9438;SDS011;5176;42.622;25.386;2023-03-16T02:04:13;11.07;;;9.73;;
9438;SDS011;5176;42.622;25.386;2023-03-16T02:06:49;11.73;;;10.07;;
9438;SDS011;5176;42.622;25.386;2023-03-16T02:09:21;12.87;;;10.40;;
9438;SDS011;5176;42.622;25.386;2023-03-16T02:11:52;15.67;;;10.00;;
9438;SDS011;5176;42.622;25.386;2023-03-16T02:14:24;10.33;;;9.23;;
9438;SDS011;5176;42.622;25.386;2023-03-16T02:16:53;11.30;;;9.93;;
9438;SDS011;5176;42.622;25.386;2023-03-16T02:19:26;15.30;;;9.50;;
9438;SDS011;5176;42.622;25.386;2023-03-16T02:22:03;14.63;;;10.70;;
9438;SDS011;5176;42.622;25.386;2023-03-16T02:24:33;13.60;;;10.43;;
9438;SDS011;5176;42.622;25.386;2023-03-16T02:27:03;12.20;;;10.90;;
9438;SDS011;5176;42.622;25.386;2023-03-16T02:32:32;13.53;;;11.57;;
9438;SDS011;5176;42.622;25.386;2023-03-16T02:35:03;11.97;;;9.77;;
9438;SDS011;5176;42.622;25.386;2023-03-16T02:37:33;13.57;;;11.03;;
9438;SDS011;5176;42.622;25.386;2023-03-16T02:40:12;11.43;;;10.10;;
9438;SDS011;5176;42.622;25.386;2023-03-16T02:42:50;14.40;;;11.20;;
9438;SDS011;5176;42.622;25.386;2023-03-16T02:45:25;15.30;;;11.20;;
9438;SDS011;5176;42.622;25.386;2023-03-16T02:47:59;13.47;;;10.40;;
9438;SDS011;5176;42.622;25.386;2023-03-16T02:50:32;14.70;;;11.27;;
9438;SDS011;5176;42.622;25.386;2023-03-16T02:53:01;13.43;;;10.93;;
9438;SDS011;5176;42.622;25.386;2023-03-16T02:55:30;17.27;;;11.80;;
9438;SDS011;5176;42.622;25.386;2023-03-16T02:57:59;14.53;;;12.10;;
9438;SDS011;5176;42.622;25.386;2023-03-16T03:00:29;15.27;;;10.80;;
9438;SDS011;5176;42.622;25.386;2023-03-16T03:02:58;15.57;;;11.67;;
9438;SDS011;5176;42.622;25.386;2023-03-16T03:05:27;15.53;;;12.00;;
9438;SDS011;5176;42.622;25.386;2023-03-16T03:07:56;15.30;;;11.63;;
9438;SDS011;5176;42.622;25.386;2023-03-16T03:10:25;16.47;;;12.10;;
9438;SDS011;5176;42.622;25.386;2023-03-16T03:12:53;15.97;;;12.60;;
9438;SDS011;5176;42.622;25.386;2023-03-16T03:15:23;16.07;;;12.17;;
9438;SDS011;5176;42.622;25.386;2023-03-16T03:17:53;14.10;;;12.03;;
9438;SDS011;5176;42.622;25.386;2023-03-16T03:20:22;15.60;;;12.93;;
9438;SDS011;5176;42.622;25.386;2023-03-16T03:22:51;15.03;;;12.27;;
9438;SDS011;5176;42.622;25.386;2023-03-16T03:25:20;17.03;;;12.53;;
9438;SDS011;5176;42.622;25.386;2023-03-16T03:27:50;13.60;;;11.90;;
9438;SDS011;5176;42.622;25.386;2023-03-16T03:30:20;14.90;;;12.97;;
9438;SDS011;5176;42.622;25.386;2023-03-16T03:32:51;15.33;;;12.73;;
9438;SDS011;5176;42.622;25.386;2023-03-16T03:35:21;14.13;;;11.63;;
9438;SDS011;5176;42.622;25.386;2023-03-16T03:37:50;16.07;;;12.57;;
9438;SDS011;5176;42.622;25.386;2023-03-16T03:40:19;13.27;;;10.83;;
9438;SDS011;5176;42.622;25.386;2023-03-16T03:42:48;13.93;;;10.57;;
9438;SDS011;5176;42.622;25.386;2023-03-16T03:45:17;10.60;;;9.37;;
9438;SDS011;5176;42.622;25.386;2023-03-16T03:47:46;10.93;;;9.77;;
9438;SDS011;5176;42.622;25.386;2023-03-16T03:50:15;10.07;;;9.00;;
9438;SDS011;5176;42.622;25.386;2023-03-16T03:52:46;9.50;;;8.40;;
9438;SDS011;5176;42.622;25.386;2023-03-16T03:55:15;11.43;;;9.00;;
9438;SDS011;5176;42.622;25.386;2023-03-16T03:57:44;10.60;;;8.90;;
9438;SDS011;5176;42.622;25.386;2023-03-16T04:00:12;8.90;;;8.00;;
9438;SDS011;5176;42.622;25.386;2023-03-16T04:02:42;7.83;;;7.03;;
9438;SDS011;5176;42.622;25.386;2023-03-16T04:05:11;7.27;;;6.57;;
9438;SDS011;5176;42.622;25.386;2023-03-16T04:07:39;7.20;;;6.10;;
9438;SDS011;5176;42.622;25.386;2023-03-16T04:10:10;7.00;;;6.07;;
9438;SDS011;5176;42.622;25.386;2023-03-16T04:12:39;6.17;;;5.40;;
9438;SDS011;5176;42.622;25.386;2023-03-16T04:15:07;6.93;;;6.03;;
9438;SDS011;5176;42.622;25.386;2023-03-16T04:17:37;7.07;;;5.57;;
9438;SDS011;5176;42.622;25.386;2023-03-16T04:20:06;5.40;;;4.60;;
9438;SDS011;5176;42.622;25.386;2023-03-16T04:22:38;4.73;;;4.33;;
9438;SDS011;5176;42.622;25.386;2023-03-16T04:25:08;4.93;;;4.43;;
9438;SDS011;5176;42.622;25.386;2023-03-16T04:27:38;4.33;;;3.93;;
9438;SDS011;5176;42.622;25.386;2023-03-16T04:30:09;4.43;;;4.03;;
9438;SDS011;5176;42.622;25.386;2023-03-16T04:32:39;4.30;;;3.90;;
9438;SDS011;5176;42.622;25.386;2023-03-16T04:35:09;4.03;;;3.43;;
9438;SDS011;5176;42.622;25.386;2023-03-16T04:37:38;4.03;;;3.73;;
9438;SDS011;5176;42.622;25.386;2023-03-16T04:40:07;3.47;;;3.17;;
9438;SDS011;5176;42.622;25.386;2023-03-16T04:42:45;4.10;;;3.70;;
9438;SDS011;5176;42.622;25.386;2023-03-16T04:45:14;5.27;;;4.30;;
9438;SDS011;5176;42.622;25.386;2023-03-16T04:47:44;5.17;;;4.67;;
9438;SDS011;5176;42.622;25.386;2023-03-16T04:50:13;4.27;;;3.87;;
9438;SDS011;5176;42.622;25.386;2023-03-16T04:52:41;8.57;;;5.83;;
9438;SDS011;5176;42.622;25.386;2023-03-16T04:55:12;5.33;;;4.83;;
9438;SDS011;5176;42.622;25.386;2023-03-16T04:57:40;4.93;;;4.43;;
9438;SDS011;5176;42.622;25.386;2023-03-16T05:00:11;5.80;;;4.30;;
9438;SDS011;5176;42.622;25.386;2023-03-16T05:02:44;5.47;;;4.90;;
9438;SDS011;5176;42.622;25.386;2023-03-16T05:05:16;7.47;;;5.40;;
9438;SDS011;5176;42.622;25.386;2023-03-16T05:07:45;6.57;;;5.77;;
9438;SDS011;5176;42.622;25.386;2023-03-16T05:10:17;6.50;;;5.80;;
9438;SDS011;5176;42.622;25.386;2023-03-16T05:12:45;5.67;;;5.07;;
9438;SDS011;5176;42.622;25.386;2023-03-16T05:15:13;7.93;;;5.63;;
9438;SDS011;5176;42.622;25.386;2023-03-16T05:17:42;6.97;;;5.80;;
9438;SDS011;5176;42.622;25.386;2023-03-16T05:20:12;7.83;;;6.17;;
9438;SDS011;5176;42.622;25.386;2023-03-16T05:22:42;6.53;;;5.33;;
9438;SDS011;5176;42.622;25.386;2023-03-16T05:25:12;7.87;;;5.90;;
9438;SDS011;5176;42.622;25.386;2023-03-16T05:27:44;13.20;;;10.47;;
9438;SDS011;5176;42.622;25.386;2023-03-16T05:30:14;9.57;;;7.90;;
9438;SDS011;5176;42.622;25.386;2023-03-16T05:32:43;7.53;;;6.50;;
9438;SDS011;5176;42.622;25.386;2023-03-16T05:35:13;7.30;;;6.20;;
9438;SDS011;5176;42.622;25.386;2023-03-16T05:37:42;9.00;;;7.20;;
9438;SDS011;5176;42.622;25.386;2023-03-16T05:40:12;16.23;;;12.00;;
9438;SDS011;5176;42.622;25.386;2023-03-16T05:42:46;9.97;;;6.60;;
9438;SDS011;5176;42.622;25.386;2023-03-16T05:45:16;7.53;;;5.90;;
9438;SDS011;5176;42.622;25.386;2023-03-16T05:47:45;8.20;;;5.77;;
9438;SDS011;5176;42.622;25.386;2023-03-16T05:50:14;9.27;;;6.83;;
9438;SDS011;5176;42.622;25.386;2023-03-16T05:52:44;9.70;;;7.40;;
9438;SDS011;5176;42.622;25.386;2023-03-16T05:55:14;9.53;;;6.30;;
9438;SDS011;5176;42.622;25.386;2023-03-16T05:57:46;8.30;;;6.37;;
9438;SDS011;5176;42.622;25.386;2023-03-16T06:00:17;9.00;;;6.67;;
9438;SDS011;5176;42.622;25.386;2023-03-16T06:02:48;8.17;;;6.97;;
9438;SDS011;5176;42.622;25.386;2023-03-16T06:05:18;8.13;;;5.70;;
9438;SDS011;5176;42.622;25.386;2023-03-16T06:07:49;5.77;;;4.97;;
9438;SDS011;5176;42.622;25.386;2023-03-16T06:10:19;7.53;;;6.13;;
9438;SDS011;5176;42.622;25.386;2023-03-16T06:12:50;7.73;;;6.43;;
9438;SDS011;5176;42.622;25.386;2023-03-16T06:15:18;6.70;;;6.03;;
9438;SDS011;5176;42.622;25.386;2023-03-16T06:17:50;7.30;;;5.33;;
9438;SDS011;5176;42.622;25.386;2023-03-16T06:20:19;5.63;;;4.93;;
9438;SDS011;5176;42.622;25.386;2023-03-16T06:22:47;5.93;;;4.73;;
9438;SDS011;5176;42.622;25.386;2023-03-16T06:25:16;4.80;;;4.23;;
9438;SDS011;5176;42.622;25.386;2023-03-16T06:27:45;5.70;;;5.10;;
9438;SDS011;5176;42.622;25.386;2023-03-16T06:30:16;5.10;;;4.60;;
9438;SDS011;5176;42.622;25.386;2023-03-16T06:32:46;6.93;;;5.27;;
9438;SDS011;5176;42.622;25.386;2023-03-16T06:35:15;4.97;;;4.00;;
9438;SDS011;5176;42.622;25.386;2023-03-16T06:37:44;5.50;;;4.57;;
9438;SDS011;5176;42.622;25.386;2023-03-16T06:40:13;6.00;;;4.67;;
9438;SDS011;5176;42.622;25.386;2023-03-16T06:42:41;5.20;;;4.40;;
9438;SDS011;5176;42.622;25.386;2023-03-16T06:45:10;5.57;;;4.77;;
9438;SDS011;5176;42.622;25.386;2023-03-16T06:47:44;5.83;;;4.83;;
9438;SDS011;5176;42.622;25.386;2023-03-16T06:50:13;6.10;;;4.80;;
9438;SDS011;5176;42.622;25.386;2023-03-16T06:52:42;5.10;;;4.37;;
9438;SDS011;5176;42.622;25.386;2023-03-16T06:55:11;5.23;;;4.73;;
9438;SDS011;5176;42.622;25.386;2023-03-16T06:57:40;4.60;;;4.10;;
9438;SDS011;5176;42.622;25.386;2023-03-16T16:21:15;18.53;;;13.03;;
9438;SDS011;5176;42.622;25.386;2023-03-16T16:23:46;8.50;;;7.03;;
9438;SDS011;5176;42.622;25.386;2023-03-16T16:26:18;15.40;;;12.83;;
9438;SDS011;5176;42.622;25.386;2023-03-16T16:28:52;6.97;;;5.73;;
9438;SDS011;5176;42.622;25.386;2023-03-16T16:31:24;6.47;;;5.60;;
9438;SDS011;5176;42.622;25.386;2023-03-16T16:33:54;5.77;;;4.67;;
9438;SDS011;5176;42.622;25.386;2023-03-16T16:36:25;6.73;;;6.10;;
9438;SDS011;5176;42.622;25.386;2023-03-16T16:38:57;11.23;;;9.73;;
9438;SDS011;5176;42.622;25.386;2023-03-16T16:41:27;4.57;;;4.13;;
9438;SDS011;5176;42.622;25.386;2023-03-16T16:43:57;6.47;;;5.17;;
9438;SDS011;5176;42.622;25.386;2023-03-16T16:46:31;5.03;;;4.60;;
9438;SDS011;5176;42.622;25.386;2023-03-16T16:49:04;5.13;;;4.63;;
9438;SDS011;5176;42.622;25.386;2023-03-16T16:51:39;6.33;;;4.40;;
9438;SDS011;5176;42.622;25.386;2023-03-16T16:54:14;8.73;;;7.23;;
9438;SDS011;5176;42.622;25.386;2023-03-16T16:56:44;5.37;;;4.10;;
9438;SDS011;5176;42.622;25.386;2023-03-16T16:59:14;3.60;;;3.30;;
9438;SDS011;5176;42.622;25.386;2023-03-16T17:01:44;3.37;;;3.07;;
9438;SDS011;5176;42.622;25.386;2023-03-16T17:04:17;4.17;;;3.77;;
9438;SDS011;5176;42.622;25.386;2023-03-16T17:06:51;4.20;;;3.83;;
9438;SDS011;5176;42.622;25.386;2023-03-16T17:09:23;4.20;;;3.80;;
9438;SDS011;5176;42.622;25.386;2023-03-16T17:11:52;4.10;;;3.67;;
9438;SDS011;5176;42.622;25.386;2023-03-16T17:14:24;3.30;;;3.00;;
9438;SDS011;5176;42.622;25.386;2023-03-16T17:16:56;3.63;;;3.23;;
9438;SDS011;5176;42.622;25.386;2023-03-16T17:19:26;4.10;;;3.80;;
9438;SDS011;5176;42.622;25.386;2023-03-16T17:21:58;7.30;;;4.90;;
9438;SDS011;5176;42.622;25.386;2023-03-16T17:24:27;7.30;;;5.93;;
9438;SDS011;5176;42.622;25.386;2023-03-16T17:26:57;11.77;;;8.53;;
9438;SDS011;5176;42.622;25.386;2023-03-16T17:29:27;9.90;;;6.57;;
9438;SDS011;5176;42.622;25.386;2023-03-16T17:31:58;11.10;;;6.63;;
9438;SDS011;5176;42.622;25.386;2023-03-16T17:34:28;7.27;;;5.30;;
9438;SDS011;5176;42.622;25.386;2023-03-16T17:37:02;13.37;;;7.63;;
9438;SDS011;5176;42.622;25.386;2023-03-16T17:39:31;9.63;;;5.90;;
9438;SDS011;5176;42.622;25.386;2023-03-16T17:42:01;7.47;;;5.63;;
9438;SDS011;5176;42.622;25.386;2023-03-16T17:44:33;8.50;;;5.97;;
9438;SDS011;5176;42.622;25.386;2023-03-16T17:47:10;4.93;;;4.07;;
9438;SDS011;5176;42.622;25.386;2023-03-16T17:49:41;4.27;;;3.63;;
9438;SDS011;5176;42.622;25.386;2023-03-16T17:52:15;4.10;;;3.70;;
9438;SDS011;5176;42.622;25.386;2023-03-16T17:54:46;4.40;;;3.00;;
9438;SDS011;5176;42.622;25.386;2023-03-16T17:57:16;3.50;;;3.07;;
9438;SDS011;5176;42.622;25.386;2023-03-16T17:59:47;3.23;;;2.93;;
9438;SDS011;5176;42.622;25.386;2023-03-16T18:05:15;3.43;;;3.13;;
9438;SDS011;5176;42.622;25.386;2023-03-16T18:07:47;3.43;;;3.13;;
9438;SDS011;5176;42.622;25.386;2023-03-16T18:10:17;3.97;;;3.63;;
9438;SDS011;5176;42.622;25.386;2023-03-16T18:12:48;3.93;;;3.53;;
9438;SDS011;5176;42.622;25.386;2023-03-16T18:15:23;3.90;;;3.60;;
9438;SDS011;5176;42.622;25.386;2023-03-16T18:17:56;5.17;;;4.67;;
9438;SDS011;5176;42.622;25.386;2023-03-16T18:20:27;4.67;;;3.83;;
9438;SDS011;5176;42.622;25.386;2023-03-16T18:23:00;3.93;;;3.33;;
9438;SDS011;5176;42.622;25.386;2023-03-16T18:25:37;6.37;;;4.77;;
9438;SDS011;5176;42.622;25.386;2023-03-16T18:28:06;4.83;;;4.33;;
9438;SDS011;5176;42.622;25.386;2023-03-16T18:30:36;7.80;;;6.40;;
9438;SDS011;5176;42.622;25.386;2023-03-16T18:33:11;7.97;;;6.13;;
9438;SDS011;5176;42.622;25.386;2023-03-16T18:35:50;6.83;;;5.70;;
9438;SDS011;5176;42.622;25.386;2023-03-16T18:38:25;4.03;;;3.63;;
9438;SDS011;5176;42.622;25.386;2023-03-16T18:40:57;5.80;;;4.80;;
9438;SDS011;5176;42.622;25.386;2023-03-16T18:43:27;7.13;;;3.37;;
9438;SDS011;5176;42.622;25.386;2023-03-16T18:45:57;5.03;;;3.37;;
9438;SDS011;5176;42.622;25.386;2023-03-16T18:48:26;3.97;;;3.33;;
9438;SDS011;5176;42.622;25.386;2023-03-16T18:50:58;19.47;;;14.37;;
9438;SDS011;5176;42.622;25.386;2023-03-16T18:53:29;3.03;;;2.67;;
9438;SDS011;5176;42.622;25.386;2023-03-16T18:55:58;2.93;;;2.53;;
9438;SDS011;5176;42.622;25.386;2023-03-16T18:58:27;3.40;;;2.77;;
9438;SDS011;5176;42.622;25.386;2023-03-16T19:00:56;7.70;;;6.00;;
9438;SDS011;5176;42.622;25.386;2023-03-16T19:03:27;2.77;;;2.57;;
9438;SDS011;5176;42.622;25.386;2023-03-16T19:05:58;2.30;;;2.10;;
9438;SDS011;5176;42.622;25.386;2023-03-16T19:08:30;2.10;;;2.00;;
9438;SDS011;5176;42.622;25.386;2023-03-16T19:11:00;6.50;;;4.30;;
9438;SDS011;5176;42.622;25.386;2023-03-16T19:13:29;2.73;;;2.53;;
9438;SDS011;5176;42.622;25.386;2023-03-16T19:15:58;16.57;;;9.57;;
9438;SDS011;5176;42.622;25.386;2023-03-16T19:18:28;4.13;;;3.10;;
9438;SDS011;5176;42.622;25.386;2023-03-16T19:20:57;4.27;;;3.87;;
9438;SDS011;5176;42.622;25.386;2023-03-16T19:23:26;3.17;;;2.87;;
9438;SDS011;5176;42.622;25.386;2023-03-16T19:26:04;4.53;;;4.13;;
9438;SDS011;5176;42.622;25.386;2023-03-16T19:28:35;4.13;;;3.80;;
9438;SDS011;5176;42.622;25.386;2023-03-16T19:31:07;4.37;;;3.97;;
9438;SDS011;5176;42.622;25.386;2023-03-16T19:33:43;3.73;;;3.43;;
9438;SDS011;5176;42.622;25.386;2023-03-16T19:36:14;3.10;;;2.80;;
9438;SDS011;5176;42.622;25.386;2023-03-16T19:38:44;3.20;;;2.90;;
9438;SDS011;5176;42.622;25.386;2023-03-16T19:41:21;2.80;;;2.60;;
9438;SDS011;5176;42.622;25.386;2023-03-16T19:43:52;2.80;;;2.60;;
9438;SDS011;5176;42.622;25.386;2023-03-16T19:46:23;3.73;;;3.33;;
9438;SDS011;5176;42.622;25.386;2023-03-16T19:48:53;2.60;;;2.40;;
9438;SDS011;5176;42.622;25.386;2023-03-16T19:51:22;2.60;;;2.40;;
9438;SDS011;5176;42.622;25.386;2023-03-16T19:53:54;2.50;;;2.17;;
9438;SDS011;5176;42.622;25.386;2023-03-16T19:56:24;2.20;;;2.10;;
9438;SDS011;5176;42.622;25.386;2023-03-16T19:58:54;2.37;;;2.20;;
9438;SDS011;5176;42.622;25.386;2023-03-16T20:01:24;2.47;;;2.27;;
9438;SDS011;5176;42.622;25.386;2023-03-16T20:03:58;3.07;;;2.53;;
9438;SDS011;5176;42.622;25.386;2023-03-16T20:06:29;2.50;;;2.30;;
9438;SDS011;5176;42.622;25.386;2023-03-16T20:08:58;2.30;;;2.10;;
9438;SDS011;5176;42.622;25.386;2023-03-16T20:11:30;2.20;;;2.10;;
9438;SDS011;5176;42.622;25.386;2023-03-16T20:13:59;3.10;;;2.80;;
9438;SDS011;5176;42.622;25.386;2023-03-16T20:16:29;3.00;;;2.70;;
9438;SDS011;5176;42.622;25.386;2023-03-16T20:18:59;4.40;;;3.83;;
9438;SDS011;5176;42.622;25.386;2023-03-16T20:21:29;5.80;;;3.90;;
9438;SDS011;5176;42.622;25.386;2023-03-16T20:23:57;4.30;;;3.67;;
9438;SDS011;5176;42.622;25.386;2023-03-16T20:26:25;5.93;;;3.80;;
9438;SDS011;5176;42.622;25.386;2023-03-16T20:28:57;3.87;;;3.40;;
9438;SDS011;5176;42.622;25.386;2023-03-16T20:31:26;3.50;;;3.20;;
9438;SDS011;5176;42.622;25.386;2023-03-16T20:33:59;3.03;;;2.70;;
9438;SDS011;5176;42.622;25.386;2023-03-16T20:36:28;2.93;;;2.57;;
9438;SDS011;5176;42.622;25.386;2023-03-16T20:38:57;3.47;;;2.87;;
9438;SDS011;5176;42.622;25.386;2023-03-16T20:41:29;3.43;;;3.07;;
9438;SDS011;5176;42.622;25.386;2023-03-16T20:44:07;3.70;;;3.30;;
9438;SDS011;5176;42.622;25.386;2023-03-16T20:46:41;2.27;;;1.90;;
9438;SDS011;5176;42.622;25.386;2023-03-16T20:49:21;2.90;;;2.10;;
9438;SDS011;5176;42.622;25.386;2023-03-16T20:51:57;2.83;;;2.53;;
9438;SDS011;5176;42.622;25.386;2023-03-16T20:54:27;2.97;;;2.63;;
9438;SDS011;5176;42.622;25.386;2023-03-16T20:56:57;2.33;;;1.83;;
9438;SDS011;5176;42.622;25.386;2023-03-16T20:59:29;1.67;;;1.57;;
9438;SDS011;5176;42.622;25.386;2023-03-16T21:01:59;2.23;;;2.13;;
9438;SDS011;5176;42.622;25.386;2023-03-16T21:04:30;1.60;;;1.50;;
9438;SDS011;5176;42.622;25.386;2023-03-16T21:06:58;2.07;;;1.90;;
9438;SDS011;5176;42.622;25.386;2023-03-16T21:09:26;1.93;;;1.77;;
9438;SDS011;5176;42.622;25.386;2023-03-16T21:11:57;1.97;;;1.87;;
9438;SDS011;5176;42.622;25.386;2023-03-16T21:14:26;1.80;;;1.70;;
9438;SDS011;5176;42.622;25.386;2023-03-16T21:16:55;1.83;;;1.73;;
9438;SDS011;5176;42.622;25.386;2023-03-16T21:19:23;1.13;;;1.10;;
9438;SDS011;5176;42.622;25.386;2023-03-16T21:21:51;1.60;;;1.50;;
9438;SDS011;5176;42.622;25.386;2023-03-16T21:24:18;1.63;;;1.53;;
9438;SDS011;5176;42.622;25.386;2023-03-16T21:26:48;1.30;;;1.30;;
9438;SDS011;5176;42.622;25.386;2023-03-16T21:29:18;1.10;;;1.10;;
9438;SDS011;5176;42.622;25.386;2023-03-16T21:31:50;2.33;;;2.07;;
9438;SDS011;5176;42.622;25.386;2023-03-16T21:34:21;2.50;;;2.30;;
9438;SDS011;5176;42.622;25.386;2023-03-16T21:36:52;2.80;;;1.97;;
9438;SDS011;5176;42.622;25.386;2023-03-16T21:39:20;2.20;;;2.00;;
9438;SDS011;5176;42.622;25.386;2023-03-16T21:41:50;3.57;;;2.50;;
9438;SDS011;5176;42.622;25.386;2023-03-16T21:44:19;3.43;;;2.40;;
9438;SDS011;5176;42.622;25.386;2023-03-16T21:46:50;1.40;;;1.30;;
9438;SDS011;5176;42.622;25.386;2023-03-16T21:49:19;1.73;;;1.40;;
9438;SDS011;5176;42.622;25.386;2023-03-16T21:51:48;2.73;;;1.40;;
9438;SDS011;5176;42.622;25.386;2023-03-16T21:54:17;1.40;;;1.30;;
9438;SDS011;5176;42.622;25.386;2023-03-16T21:56:46;2.77;;;2.33;;
9438;SDS011;5176;42.622;25.386;2023-03-16T21:59:15;2.40;;;2.20;;
9438;SDS011;5176;42.622;25.386;2023-03-16T22:01:45;1.27;;;1.17;;
9438;SDS011;5176;42.622;25.386;2023-03-16T22:04:15;1.90;;;1.80;;
9438;SDS011;5176;42.622;25.386;2023-03-16T22:06:44;1.73;;;1.63;;
9438;SDS011;5176;42.622;25.386;2023-03-16T22:09:15;1.30;;;1.20;;
9438;SDS011;5176;42.622;25.386;2023-03-16T22:11:45;1.50;;;1.13;;
9438;SDS011;5176;42.622;25.386;2023-03-16T22:14:14;1.50;;;1.40;;
9438;SDS011;5176;42.622;25.386;2023-03-16T22:16:42;1.57;;;1.47;;
9438;SDS011;5176;42.622;25.386;2023-03-16T22:19:11;1.73;;;1.63;;
9438;SDS011;5176;42.622;25.386;2023-03-16T22:21:44;0.70;;;0.70;;
9438;SDS011;5176;42.622;25.386;2023-03-16T22:24:15;0.90;;;0.90;;
9438;SDS011;5176;42.622;25.386;2023-03-16T22:26:46;0.93;;;0.93;;
9438;SDS011;5176;42.622;25.386;2023-03-16T22:29:17;0.70;;;0.70;;
9438;SDS011;5176;42.622;25.386;2023-03-16T22:31:51;1.00;;;1.00;;
9438;SDS011;5176;42.622;25.386;2023-03-16T22:34:24;0.70;;;0.70;;
9438;SDS011;5176;42.622;25.386;2023-03-16T22:36:57;1.23;;;1.13;;
9438;SDS011;5176;42.622;25.386;2023-03-16T22:39:28;0.70;;;0.70;;
9438;SDS011;5176;42.622;25.386;2023-03-16T22:42:02;0.60;;;0.60;;
9438;SDS011;5176;42.622;25.386;2023-03-16T22:44:31;0.60;;;0.60;;
9438;SDS011;5176;42.622;25.386;2023-03-16T22:46:59;0.80;;;0.80;;
9438;SDS011;5176;42.622;25.386;2023-03-16T22:49:28;0.50;;;0.50;;
9438;SDS011;5176;42.622;25.386;2023-03-16T22:51:58;0.87;;;0.87;;
9438;SDS011;5176;42.622;25.386;2023-03-16T22:54:27;1.30;;;1.20;;
9438;SDS011;5176;42.622;25.386;2023-03-16T22:56:56;1.70;;;1.27;;
9438;SDS011;5176;42.622;25.386;2023-03-16T22:59:24;0.93;;;0.90;;
9438;SDS011;5176;42.622;25.386;2023-03-16T23:01:54;0.70;;;0.70;;
9438;SDS011;5176;42.622;25.386;2023-03-16T23:04:24;0.80;;;0.80;;
9438;SDS011;5176;42.622;25.386;2023-03-16T23:06:59;1.03;;;0.80;;
9438;SDS011;5176;42.622;25.386;2023-03-16T23:09:28;0.53;;;0.53;;
9438;SDS011;5176;42.622;25.386;2023-03-16T23:11:57;1.20;;;0.77;;
9438;SDS011;5176;42.622;25.386;2023-03-16T23:14:27;0.80;;;0.80;;
9438;SDS011;5176;42.622;25.386;2023-03-16T23:16:59;0.50;;;0.50;;
9438;SDS011;5176;42.622;25.386;2023-03-16T23:19:27;0.73;;;0.73;;
9438;SDS011;5176;42.622;25.386;2023-03-16T23:22:01;0.93;;;0.83;;
9438;SDS011;5176;42.622;25.386;2023-03-16T23:24:32;0.83;;;0.83;;
9438;SDS011;5176;42.622;25.386;2023-03-16T23:27:02;0.80;;;0.80;;
9438;SDS011;5176;42.622;25.386;2023-03-16T23:29:32;0.60;;;0.60;;
9438;SDS011;5176;42.622;25.386;2023-03-16T23:32:00;0.70;;;0.70;;
9438;SDS011;5176;42.622;25.386;2023-03-16T23:34:29;0.70;;;0.70;;
9438;SDS011;5176;42.622;25.386;2023-03-16T23:36:58;0.60;;;0.60;;
9438;SDS011;5176;42.622;25.386;2023-03-16T23:39:28;0.70;;;0.70;;
9438;SDS011;5176;42.622;25.386;2023-03-16T23:41:57;0.77;;;0.77;;
9438;SDS011;5176;42.622;25.386;2023-03-16T23:44:27;1.13;;;1.00;;
9438;SDS011;5176;42.622;25.386;2023-03-16T23:46:57;0.77;;;0.77;;
9438;SDS011;5176;42.622;25.386;2023-03-16T23:49:27;1.27;;;1.10;;
9438;SDS011;5176;42.622;25.386;2023-03-16T23:52:00;0.93;;;0.93;;
9438;SDS011;5176;42.622;25.386;2023-03-16T23:54:30;1.00;;;1.00;;
9438;SDS011;5176;42.622;25.386;2023-03-16T23:56:59;1.40;;;1.30;;
9438;SDS011;5176;42.622;25.386;2023-03-16T23:59:28;1.10;;;1.10;;
